Time;durP1;ratioP1;P1;durP2;ratioP2;P2;SDS_P1;SDS_P2;PMS_P1;PMS_P2;Temp;Humidity;BMP_temperature;BMP_pressure;BME280_temperature;BME280_humidity;BME280_pressure;Samples;Min_cycle;Max_cycle;Signal;HPM_P1;HPM_P2
2023/07/28 00:01:00;;;;;;;16.55;8.10;;;;;;;16.87;100.00;100281.03;4992954;28;20111;-79
2023/07/28 00:03:45;;;;;;;20.80;8.65;;;;;;;16.88;100.00;100282.72;4992788;28;20052;-79
2023/07/28 00:06:31;;;;;;;20.73;8.57;;;;;;;16.88;100.00;100274.69;4975779;28;20045;-79
2023/07/28 00:09:16;;;;;;;24.35;9.00;;;;;;;16.88;100.00;100269.34;4993121;28;21052;-80
2023/07/28 00:12:02;;;;;;;19.40;9.13;;;;;;;16.89;100.00;100278.25;4990062;28;20062;-78
2023/07/28 00:14:47;;;;;;;19.70;9.63;;;;;;;16.89;100.00;100273.72;4990866;28;20511;-78
2023/07/28 00:17:33;;;;;;;23.40;9.27;;;;;;;16.89;100.00;100272.88;4989807;28;20053;-78
2023/07/28 00:20:18;;;;;;;23.10;9.25;;;;;;;16.90;100.00;100270.09;4992414;28;20042;-80
2023/07/28 00:23:03;;;;;;;22.98;9.32;;;;;;;16.90;100.00;100269.25;4972916;28;20125;-79
2023/07/28 00:25:49;;;;;;;24.58;9.55;;;;;;;16.90;100.00;100270.09;4994746;28;20128;-80
2023/07/28 00:28:34;;;;;;;23.33;9.40;;;;;;;16.90;100.00;100267.44;4988329;28;20516;-79
2023/07/28 00:31:19;;;;;;;27.88;9.75;;;;;;;16.89;100.00;100271.03;4970057;28;20851;-80
2023/07/28 00:34:05;;;;;;;21.10;9.05;;;;;;;16.90;100.00;100275.44;4990505;28;20757;-78
2023/07/28 00:36:50;;;;;;;22.92;9.68;;;;;;;16.89;100.00;100270.22;4978294;28;20045;-79
2023/07/28 00:39:36;;;;;;;24.25;9.70;;;;;;;16.89;100.00;100279.06;4980034;28;20048;-78
2023/07/28 00:42:21;;;;;;;22.00;9.80;;;;;;;16.90;100.00;100269.25;4996248;28;20408;-79
2023/07/28 00:45:07;;;;;;;24.02;9.85;;;;;;;16.89;100.00;100268.38;4992878;28;20481;-79
2023/07/28 00:47:52;;;;;;;25.05;9.75;;;;;;;16.90;100.00;100274.59;4989860;28;20464;-78
2023/07/28 00:50:40;;;;;;;27.00;10.10;;;;;;;16.89;100.00;100265.69;4989456;28;20119;-79
2023/07/28 00:53:26;;;;;;;24.15;10.07;;;;;;;16.89;100.00;100268.38;4992116;28;20042;-78
2023/07/28 00:56:12;;;;;;;27.05;9.27;;;;;;;16.89;100.00;100268.38;4976978;28;20045;-78
2023/07/28 00:58:58;;;;;;;23.95;9.45;;;;;;;16.89;100.00;100271.03;4975358;28;20038;-78
2023/07/28 01:01:43;;;;;;;23.40;9.57;;;;;;;16.89;100.00;100267.53;4991276;28;21283;-78
2023/07/28 01:04:29;;;;;;;22.73;8.82;;;;;;;16.89;100.00;100268.38;4975671;28;20034;-78
2023/07/28 01:07:21;;;;;;;26.40;9.32;;;;;;;16.89;100.00;100264.88;4975094;28;20167;-78
2023/07/28 01:10:22;;;;;;;21.05;8.48;;;;;;;16.88;100.00;100263.19;4975306;28;20048;-78
2023/07/28 01:13:08;;;;;;;22.48;8.88;;;;;;;16.88;100.00;100264.00;4978506;28;20547;-77
2023/07/28 01:15:53;;;;;;;17.55;8.05;;;;;;;16.89;100.00;100268.38;4992756;28;20080;-78
2023/07/28 01:18:38;;;;;;;24.02;8.70;;;;;;;16.86;100.00;100262.44;4979410;28;20053;-78
2023/07/28 01:21:30;;;;;;;16.40;7.53;;;;;;;16.88;100.00;100263.19;4962093;28;20063;-78
2023/07/28 01:24:22;;;;;;;22.35;7.82;;;;;;;16.87;100.00;100275.69;4973543;28;20049;-79
2023/07/28 01:27:08;;;;;;;24.35;8.32;;;;;;;16.86;100.00;100268.63;4977716;28;20045;-78
2023/07/28 01:29:54;;;;;;;21.08;7.90;;;;;;;16.86;100.00;100268.63;4978014;28;20081;-77
2023/07/28 01:32:45;;;;;;;20.45;7.13;;;;;;;16.86;100.00;100271.31;4995387;28;20053;-78
2023/07/28 01:35:30;;;;;;;16.95;6.95;;;;;;;16.86;100.00;100274.00;4995572;28;21085;-78
2023/07/28 01:38:16;;;;;;;19.75;7.30;;;;;;;16.84;100.00;100270.59;4995023;28;20057;-78
2023/07/28 01:41:01;;;;;;;16.67;7.35;;;;;;;16.84;100.00;100274.09;4994679;28;20046;-78
2023/07/28 01:43:47;;;;;;;16.73;6.50;;;;;;;16.84;100.00;100267.94;4995793;28;20053;-79
2023/07/28 01:46:32;;;;;;;17.02;6.68;;;;;;;16.83;100.00;100268.88;4993225;28;20165;-79
2023/07/28 01:49:17;;;;;;;15.43;6.32;;;;;;;16.83;100.00;100271.53;4962617;28;20821;-78
2023/07/28 01:52:03;;;;;;;15.57;6.38;;;;;;;16.83;100.00;100272.41;4997419;28;20409;-79
2023/07/28 01:54:50;;;;;;;13.52;5.97;;;;;;;16.83;100.00;100279.56;4982529;28;20049;-79
2023/07/28 01:57:39;;;;;;;10.10;5.35;;;;;;;16.82;100.00;100277.88;4997014;28;20061;-78
2023/07/28 02:00:25;;;;;;;13.13;6.20;;;;;;;16.82;100.00;100283.22;4980236;28;20049;-78
2023/07/28 02:03:10;;;;;;;14.38;5.20;;;;;;;16.82;100.00;100276.06;4994875;28;20045;-78
2023/07/28 02:05:56;;;;;;;15.48;4.93;;;;;;;16.81;100.00;100278.84;4995653;28;20053;-78
2023/07/28 02:08:41;;;;;;;12.60;4.55;;;;;;;16.80;100.00;100277.16;4982099;28;20033;-79
2023/07/28 02:11:27;;;;;;;13.70;5.03;;;;;;;16.78;100.00;100276.44;4971822;28;20137;-80
2023/07/28 02:14:12;;;;;;;16.70;4.60;;;;;;;16.76;100.00;100281.91;4996723;28;20050;-80
2023/07/28 02:16:58;;;;;;;12.73;4.55;;;;;;;16.76;100.00;100270.34;4978999;28;20481;-79
2023/07/28 02:19:43;;;;;;;15.80;5.15;;;;;;;16.76;100.00;100278.38;4997230;28;20099;-79
2023/07/28 02:22:29;;;;;;;12.63;5.38;;;;;;;16.76;100.00;100270.34;4981078;28;20037;-79
2023/07/28 02:25:15;;;;;;;12.73;5.13;;;;;;;16.75;100.00;100271.31;4996942;28;20060;-79
2023/07/28 02:28:00;;;;;;;11.88;4.88;;;;;;;16.74;100.00;100269.63;4996325;28;20136;-79
2023/07/28 02:30:45;;;;;;;12.73;5.80;;;;;;;16.75;100.00;100265.97;4961234;28;20054;-79
2023/07/28 02:33:35;;;;;;;14.35;5.60;;;;;;;16.73;100.00;100267.94;4992553;28;20525;-79
2023/07/28 02:36:20;;;;;;;13.25;5.55;;;;;;;16.72;100.00;100260.91;4997470;28;20048;-79
2023/07/28 02:39:06;;;;;;;22.02;5.50;;;;;;;16.72;100.00;100266.25;4994195;28;20114;-79
2023/07/28 02:41:51;;;;;;;15.88;5.05;;;;;;;16.70;100.00;100271.69;4993988;28;20058;-79
2023/07/28 02:44:36;;;;;;;11.85;5.30;;;;;;;16.70;100.00;100271.69;4997229;28;20053;-78
2023/07/28 02:47:22;;;;;;;14.00;4.95;;;;;;;16.69;100.00;100275.34;4995271;28;20041;-79
2023/07/28 02:50:08;;;;;;;17.80;5.32;;;;;;;16.69;100.00;100267.34;4995573;28;20103;-78
2023/07/28 02:52:53;;;;;;;13.30;4.38;;;;;;;16.70;100.00;100285.94;4995963;28;20045;-79
2023/07/28 02:55:45;;;;;;;10.93;4.05;;;;;;;16.69;100.00;100284.19;4997964;28;20378;-79
2023/07/28 02:58:31;;;;;;;10.30;4.13;;;;;;;16.69;100.00;100284.19;4996462;28;20552;-79
2023/07/28 03:01:17;;;;;;;9.02;4.07;;;;;;;16.70;100.00;100291.28;4995220;28;20312;-79
2023/07/28 03:04:03;;;;;;;12.90;4.50;;;;;;;16.69;100.00;100294.88;4980144;28;20045;-79
2023/07/28 03:06:48;;;;;;;9.40;3.78;;;;;;;16.71;100.00;100297.44;4977527;28;20038;-79
2023/07/28 03:09:33;;;;;;;10.05;4.07;;;;;;;16.72;100.00;100303.66;4995033;28;20040;-79
2023/07/28 03:12:19;;;;;;;10.35;4.18;;;;;;;16.72;100.00;100301.81;4995287;28;20058;-80
2023/07/28 03:15:05;;;;;;;20.38;4.35;;;;;;;16.75;100.00;100306.06;4978739;28;20062;-79
2023/07/28 03:17:50;;;;;;;11.45;4.18;;;;;;;16.75;100.00;100298.91;4995023;28;20056;-79
2023/07/28 03:20:36;;;;;;;11.32;4.13;;;;;;;16.73;100.00;100300.88;4995571;28;20041;-79
2023/07/28 03:23:21;;;;;;;12.93;4.43;;;;;;;16.73;100.00;100305.34;4994673;28;20129;-79
2023/07/28 03:26:07;;;;;;;20.00;4.78;;;;;;;16.75;100.00;100314.09;4980768;28;20037;-80
2023/07/28 03:28:52;;;;;;;11.43;4.03;;;;;;;16.75;100.00;100311.41;4982058;28;20045;-80
2023/07/28 03:31:37;;;;;;;14.43;4.25;;;;;;;16.76;100.00;100310.44;4994768;28;20050;-79
2023/07/28 03:34:23;;;;;;;11.35;4.28;;;;;;;16.75;100.00;100308.75;4981360;28;20382;-80
2023/07/28 03:37:08;;;;;;;13.57;4.47;;;;;;;16.75;100.00;100311.41;4997264;28;20045;-80
2023/07/28 03:39:54;;;;;;;9.32;4.15;;;;;;;16.75;100.00;100319.44;4977974;28;20041;-80
2023/07/28 03:42:42;;;;;;;11.80;4.45;;;;;;;16.73;100.00;100313.38;4994245;28;20041;-79
2023/07/28 03:45:27;;;;;;;12.65;5.22;;;;;;;16.74;100.00;100323.09;4996341;28;20041;-79
2023/07/28 03:48:13;;;;;;;10.90;4.60;;;;;;;16.74;100.00;100323.09;4979712;28;20073;-79
2023/07/28 03:50:59;;;;;;;11.90;4.72;;;;;;;16.74;100.00;100328.44;4997497;28;20132;-79
2023/07/28 03:53:44;;;;;;;12.88;4.80;;;;;;;16.73;100.00;100329.41;4996408;28;20045;-78
2023/07/28 03:56:29;;;;;;;8.77;4.55;;;;;;;16.73;100.00;100327.59;4980225;28;20484;-79
2023/07/28 03:59:15;;;;;;;9.25;4.97;;;;;;;16.73;100.00;100326.72;4979939;28;20052;-79
2023/07/28 04:02:00;;;;;;;11.77;5.03;;;;;;;16.74;100.00;100325.75;4978389;28;20112;-78
2023/07/28 04:04:48;;;;;;;8.48;4.82;;;;;;;16.73;100.00;100324.06;4993848;28;20396;-79
2023/07/28 04:07:33;;;;;;;9.20;4.60;;;;;;;16.74;100.00;100325.75;4995588;28;20041;-79
2023/07/28 04:10:19;;;;;;;11.30;4.68;;;;;;;16.74;100.00;100325.75;4994112;28;20111;-78
2023/07/28 04:13:04;;;;;;;11.43;4.72;;;;;;;16.75;100.00;100338.13;4994639;28;20073;-80
2023/07/28 04:15:50;;;;;;;10.52;4.88;;;;;;;16.75;100.00;100335.47;4994666;28;20448;-78
2023/07/28 04:18:35;;;;;;;12.15;5.15;;;;;;;16.76;100.00;100347.84;4992981;28;20049;-79
2023/07/28 04:21:21;;;;;;;11.77;4.80;;;;;;;16.74;100.00;100344.47;4980422;28;20141;-80
2023/07/28 04:24:12;;;;;;;13.70;4.68;;;;;;;16.75;100.00;100351.50;4982036;28;20052;-80
2023/07/28 04:26:58;;;;;;;7.43;4.70;;;;;;;16.75;100.00;100348.84;4976097;28;20065;-78
2023/07/28 04:29:43;;;;;;;13.27;4.90;;;;;;;16.77;100.00;100354.94;4960184;28;20041;-80
2023/07/28 04:32:29;;;;;;;10.20;4.75;;;;;;;16.76;100.00;100362.09;4992411;28;20485;-78
2023/07/28 04:35:14;;;;;;;9.85;4.60;;;;;;;16.77;100.00;100361.09;4974443;28;20049;-80
2023/07/28 04:37:59;;;;;;;12.77;6.00;;;;;;;16.76;100.00;100362.09;4994679;28;20124;-81
2023/07/28 04:40:45;;;;;;;12.38;5.80;;;;;;;16.75;100.00;100355.03;4993865;28;20054;-79
2023/07/28 04:43:30;;;;;;;13.00;6.38;;;;;;;16.76;100.00;100363.88;4994849;28;20045;-80
2023/07/28 04:46:16;;;;;;;11.32;5.93;;;;;;;16.76;100.00;100369.25;4993658;28;20049;-80
2023/07/28 04:49:02;;;;;;;12.63;6.13;;;;;;;16.76;100.00;100371.91;4992709;28;20053;-80
2023/07/28 04:51:50;;;;;;;12.07;6.63;;;;;;;16.76;100.00;100363.88;4995608;28;20042;-79
2023/07/28 04:54:36;;;;;;;12.30;7.55;;;;;;;16.76;100.00;100364.75;4995412;28;20156;-78
2023/07/28 04:57:21;;;;;;;10.90;7.05;;;;;;;16.77;100.00;100362.94;4977720;28;20026;-78
2023/07/28 05:00:08;;;;;;;11.27;7.05;;;;;;;16.76;100.00;100363.88;4992173;28;20048;-78
2023/07/28 05:02:53;;;;;;;15.43;8.25;;;;;;;16.77;100.00;100365.63;4992367;28;20037;-78
2023/07/28 05:05:41;;;;;;;15.73;8.23;;;;;;;16.78;100.00;100375.34;4989919;28;20053;-78
2023/07/28 05:08:27;;;;;;;13.93;8.27;;;;;;;16.77;100.00;100376.31;4993918;28;20041;-78
2023/07/28 05:11:12;;;;;;;17.67;8.32;;;;;;;16.79;100.00;100385.03;4994077;28;20055;-78
2023/07/28 05:13:58;;;;;;;14.60;9.73;;;;;;;16.79;100.00;100385.03;4992627;28;20077;-78
2023/07/28 05:16:43;;;;;;;19.42;10.00;;;;;;;16.79;100.00;100395.75;4993947;28;21021;-79
2023/07/28 05:19:29;;;;;;;15.50;9.60;;;;;;;16.78;100.00;100386.03;4978036;28;20038;-79
2023/07/28 05:22:14;;;;;;;18.13;10.07;;;;;;;16.78;100.00;100391.38;4992139;28;20044;-79
2023/07/28 05:24:59;;;;;;;16.27;10.20;;;;;;;16.78;100.00;100397.56;4977817;28;20096;-79
2023/07/28 05:27:45;;;;;;;15.52;10.02;;;;;;;16.79;100.00;100393.06;4995519;28;20049;-79
2023/07/28 05:30:30;;;;;;;13.68;9.27;;;;;;;16.79;100.00;100393.06;4995480;28;20285;-79
2023/07/28 05:33:16;;;;;;;18.15;9.38;;;;;;;16.79;100.00;100382.38;4978685;28;20049;-79
2023/07/28 05:36:02;;;;;;;15.98;8.75;;;;;;;16.80;100.00;100392.09;4984623;28;20050;-80
2023/07/28 05:38:48;;;;;;;13.48;9.05;;;;;;;16.83;100.00;100392.69;4995040;28;20042;-78
2023/07/28 05:41:33;;;;;;;16.13;9.70;;;;;;;16.88;100.00;100394.16;4993934;28;20038;-79
2023/07/28 05:44:21;;;;;;;15.45;9.23;;;;;;;16.93;100.00;100399.97;4980459;28;20038;-79
2023/07/28 05:47:07;;;;;;;14.93;9.65;;;;;;;16.96;100.00;100397.91;4962902;28;22050;-79
2023/07/28 05:49:55;;;;;;;18.67;10.10;;;;;;;16.99;100.00;100401.34;4993324;28;20061;-79
2023/07/28 05:52:40;;;;;;;14.32;9.80;;;;;;;16.98;100.00;100395.13;4990756;28;20042;-78
2023/07/28 05:55:26;;;;;;;15.80;9.60;;;;;;;17.00;100.00;100406.53;4993306;28;20038;-78
2023/07/28 05:58:11;;;;;;;17.08;9.60;;;;;;;17.03;100.00;100402.81;4994020;28;20096;-78
2023/07/28 06:00:57;;;;;;;18.40;9.73;;;;;;;17.05;100.00;100407.06;4977780;28;20029;-78
2023/07/28 06:03:42;;;;;;;15.07;9.43;;;;;;;17.07;100.00;100409.63;4976108;28;20049;-79
2023/07/28 06:06:27;;;;;;;15.15;9.40;;;;;;;17.07;100.00;100413.16;4993137;28;20071;-78
2023/07/28 06:09:13;;;;;;;12.27;8.57;;;;;;;17.08;100.00;100411.31;4976797;28;20038;-78
2023/07/28 06:11:58;;;;;;;13.77;9.45;;;;;;;17.06;100.00;100421.28;4992652;28;20644;-78
2023/07/28 06:14:44;;;;;;;16.83;10.02;;;;;;;17.05;100.00;100423.09;4993763;28;20081;-78
2023/07/28 06:17:29;;;;;;;15.82;9.45;;;;;;;17.06;100.00;100421.28;4993662;28;20065;-77
2023/07/28 06:20:15;;;;;;;14.95;9.43;;;;;;;17.07;100.00;100431.88;4973123;28;20042;-78
2023/07/28 06:23:00;;;;;;;12.85;8.93;;;;;;;17.09;100.00;100429.91;4986558;28;21255;-78
2023/07/28 06:25:46;;;;;;;13.50;9.68;;;;;;;17.10;100.00;100430.75;4975213;28;20099;-78
2023/07/28 06:28:31;;;;;;;18.48;9.70;;;;;;;17.11;100.00;100435.16;4992656;28;20037;-79
2023/07/28 06:31:17;;;;;;;13.50;9.13;;;;;;;17.07;100.00;100428.34;4978658;28;20552;-78
2023/07/28 06:34:02;;;;;;;14.05;8.80;;;;;;;17.04;100.00;100436.59;4993931;28;20104;-78
2023/07/28 06:36:48;;;;;;;13.07;8.98;;;;;;;17.04;100.00;100441.94;4994941;28;20594;-79
2023/07/28 06:39:33;;;;;;;15.52;9.27;;;;;;;17.06;100.00;100445.34;4983238;28;20057;-78
2023/07/28 06:42:23;;;;;;;14.43;8.52;;;;;;;17.05;100.00;100449.84;4994826;28;20041;-78
2023/07/28 06:45:12;;;;;;;13.00;9.35;;;;;;;17.07;100.00;100457.75;4982487;28;20041;-78
2023/07/28 06:47:57;;;;;;;13.82;9.45;;;;;;;17.12;100.00;100462.72;4969422;28;20048;-78
2023/07/28 06:50:43;;;;;;;13.93;9.77;;;;;;;17.18;100.00;100471.13;4998527;28;20073;-78
2023/07/28 06:53:28;;;;;;;12.07;8.55;;;;;;;17.22;100.00;100461.88;4983577;28;20050;-78
2023/07/28 06:56:14;;;;;;;10.88;7.93;;;;;;;17.29;100.00;100472.09;4997321;28;20034;-78
2023/07/28 06:58:59;;;;;;;10.95;8.05;;;;;;;17.30;100.00;100465.75;4996243;28;21075;-78
2023/07/28 07:01:44;;;;;;;11.68;8.38;;;;;;;17.33;100.00;100477.06;4983781;28;21036;-79
2023/07/28 07:04:30;;;;;;;13.27;8.82;;;;;;;17.33;100.00;100478.91;4997324;28;20058;-78
2023/07/28 07:07:15;;;;;;;13.02;8.57;;;;;;;17.34;100.00;100485.94;4981488;28;20078;-78
2023/07/28 07:10:01;;;;;;;13.02;9.27;;;;;;;17.37;100.00;100485.69;4997458;28;20164;-78
2023/07/28 07:12:46;;;;;;;13.38;8.95;;;;;;;17.36;100.00;100487.53;4955963;28;20156;-79
2023/07/28 07:15:34;;;;;;;12.25;9.02;;;;;;;17.34;100.00;100488.63;4996729;28;20085;-78
2023/07/28 07:18:19;;;;;;;15.73;9.75;;;;;;;17.38;100.00;100498.13;4976682;28;20053;-77
2023/07/28 07:21:06;;;;;;;16.33;10.35;;;;;;;17.40;100.00;100500.66;4992232;28;20482;-79
2023/07/28 07:23:51;;;;;;;12.23;9.25;;;;;;;17.45;100.00;100499.34;4977467;28;20065;-78
2023/07/28 07:26:36;;;;;;;15.40;10.38;;;;;;;17.50;100.00;100509.66;4974164;28;20054;-79
2023/07/28 07:29:22;;;;;;;13.98;9.60;;;;;;;17.57;100.00;100510.88;4996925;28;20629;-79
2023/07/28 07:32:09;;;;;;;15.68;10.43;;;;;;;17.65;100.00;100515.56;4994279;28;20513;-79
2023/07/28 07:34:55;;;;;;;14.40;9.73;;;;;;;17.73;100.00;100518.50;4989645;28;20485;-79
2023/07/28 07:37:40;;;;;;;14.27;9.38;;;;;;;17.77;100.00;100514.59;4981786;28;20451;-78
2023/07/28 07:40:25;;;;;;;16.25;10.38;;;;;;;17.84;100.00;100520.31;4996036;28;20072;-79
2023/07/28 07:43:11;;;;;;;14.18;9.60;;;;;;;17.92;100.00;100525.03;4994109;28;20483;-79
2023/07/28 07:45:56;;;;;;;14.93;10.00;;;;;;;18.01;100.00;100520.75;4989523;28;20045;-79
2023/07/28 07:48:43;;;;;;;11.20;8.40;;;;;;;18.05;100.00;100525.75;4991355;28;20037;-81
2023/07/28 07:51:28;;;;;;;9.07;7.32;;;;;;;18.11;100.00;100535.13;4976673;28;20049;-79
2023/07/28 07:54:15;;;;;;;13.50;8.35;;;;;;;18.18;100.00;100533.63;4990743;28;20055;-80
2023/07/28 07:57:02;;;;;;;8.98;6.88;;;;;;;18.29;100.00;100527.38;4991214;28;20041;-79
2023/07/28 07:59:48;;;;;;;9.95;7.50;;;;;;;18.41;100.00;100530.03;4991272;28;20666;-79
2023/07/28 08:02:33;;;;;;;10.50;8.27;;;;;;;18.50;100.00;100539.97;4976795;28;20086;-81
2023/07/28 08:05:19;;;;;;;9.60;7.40;;;;;;;18.52;100.00;100542.53;4995003;28;21016;-81
2023/07/28 08:08:06;;;;;;;13.35;8.60;;;;;;;18.63;100.00;100547.81;4991794;28;20107;-82
2023/07/28 08:10:52;;;;;;;10.27;7.38;;;;;;;18.81;100.00;100547.22;4995702;28;20077;-82
2023/07/28 08:13:37;;;;;;;8.63;6.53;;;;;;;19.06;100.00;100537.13;4994600;28;20064;-83
2023/07/28 08:16:23;;;;;;;7.40;5.93;;;;;;;19.22;100.00;100542.84;4995254;28;20508;-83
2023/07/28 08:19:12;;;;;;;5.75;5.03;;;;;;;19.19;100.00;100547.63;4957557;28;20041;-83
2023/07/28 08:21:57;;;;;;;7.82;5.80;;;;;;;19.19;100.00;100542.25;4980363;28;20077;-84
2023/07/28 08:24:42;;;;;;;5.97;5.22;;;;;;;19.31;100.00;100551.06;4975624;28;20122;-85
2023/07/28 08:27:28;;;;;;;7.32;4.78;;;;;;;19.29;100.00;100558.41;4976837;28;20649;-85
2023/07/28 08:30:15;;;;;;;7.53;4.97;;;;;;;19.24;100.00;100558.81;4993344;28;20073;-83
2023/07/28 08:33:01;;;;;;;5.28;4.13;;;;;;;19.48;100.00;100563.00;4978408;28;20107;-84
2023/07/28 08:35:47;;;;;;;5.25;4.15;;;;;;;19.64;100.00;100562.50;4992213;28;20133;-84
2023/07/28 08:38:33;;;;;;;5.85;4.00;;;;;;;19.62;100.00;100564.47;4978644;28;20037;-87
2023/07/28 08:41:18;;;;;;;5.90;3.47;;;;;;;19.51;100.00;100563.59;4994126;28;20049;-85
2023/07/28 08:44:04;;;;;;;4.75;3.38;;;;;;;19.53;100.00;100572.38;4979949;28;20112;-85
2023/07/28 08:46:49;;;;;;;5.18;3.45;;;;;;;19.67;100.00;100568.44;4991135;28;20045;-80
2023/07/28 08:49:36;;;;;;;5.03;3.55;;;;;;;19.96;100.00;100566.88;4995849;28;20077;-80
2023/07/28 08:52:21;;;;;;;3.47;3.17;;;;;;;20.27;100.00;100568.63;4967661;28;20041;-79
2023/07/28 08:55:07;;;;;;;4.28;3.08;;;;;;;20.47;100.00;100570.31;4967194;28;20049;-80
2023/07/28 08:57:53;;;;;;;4.00;2.70;;;;;;;20.70;100.00;100572.72;4995189;28;20490;-80
2023/07/28 09:00:38;;;;;;;3.42;2.88;;;;;;;20.85;100.00;100570.47;4992429;28;20046;-81
2023/07/28 09:03:27;;;;;;;2.83;2.53;;;;;;;20.82;100.00;100575.25;4991685;28;20037;-80
2023/07/28 09:06:12;;;;;;;2.85;2.55;;;;;;;20.55;100.00;100576.84;4978277;28;20046;-79
2023/07/28 09:08:58;;;;;;;2.83;2.60;;;;;;;20.29;100.00;100580.94;4962368;28;20041;-80
2023/07/28 09:11:49;;;;;;;3.22;2.92;;;;;;;20.24;100.00;100577.81;4993865;28;20145;-85
2023/07/28 09:14:39;;;;;;;8.38;6.32;;;;;;;20.38;100.00;100575.69;4978972;28;20074;-81
2023/07/28 09:17:25;;;;;;;3.08;2.83;;;;;;;20.54;100.00;100583.22;4993731;28;20049;-80
2023/07/28 09:20:15;;;;;;;3.35;3.05;;;;;;;20.67;100.00;100580.22;4979261;28;20120;-80
2023/07/28 09:23:01;;;;;;;3.10;2.50;;;;;;;20.71;100.00;100585.16;4995414;28;20050;-91
2023/07/28 09:25:46;;;;;;;3.90;2.40;;;;;;;20.82;100.00;100592.25;4983268;28;20038;-88
2023/07/28 09:28:39;;;;;;;2.28;2.08;;;;;;;20.83;100.00;100585.03;4995993;28;20192;-86
2023/07/28 09:31:32;;;;;;;3.20;2.42;;;;;;;21.04;100.00;100587.59;4996425;28;20057;-92
2023/07/28 09:34:27;;;;;;;2.97;2.30;;;;;;;21.22;100.00;100584.13;4980532;28;20085;-88
2023/07/28 09:37:13;;;;;;;3.17;2.80;;;;;;;21.50;100.00;100592.25;4979691;28;20104;-86
2023/07/28 09:40:00;;;;;;;4.03;2.53;;;;;;;21.69;100.00;100588.66;4969284;28;20077;-91
2023/07/28 09:42:49;;;;;;;2.72;2.22;;;;;;;21.62;100.00;100593.75;4983763;28;20048;-88
2023/07/28 09:45:35;;;;;;;2.25;2.10;;;;;;;21.42;100.00;100593.84;4981746;28;20091;-92
2023/07/28 09:48:21;;;;;;;2.70;2.10;;;;;;;21.23;100.00;100594.75;4966501;28;20049;-89
2023/07/28 09:51:11;;;;;;;2.42;2.22;;;;;;;21.16;100.00;100594.50;4997225;28;20045;-88
2023/07/28 09:54:04;;;;;;;5.07;2.58;;;;;;;21.33;100.00;100585.78;4984397;28;20037;-89
2023/07/28 09:56:51;;;;;;;2.67;2.40;;;;;;;21.52;100.00;100591.09;4996970;28;20030;-90
2023/07/28 09:59:39;;;;;;;3.85;2.60;;;;;;;21.54;100.00;100594.53;4980527;28;20429;-89
2023/07/28 10:02:25;;;;;;;2.30;2.10;;;;;;;21.57;100.00;100601.44;4982684;28;20089;-90
2023/07/28 10:05:10;;;;;;;3.22;2.05;;;;;;;21.62;100.00;100601.84;4955447;28;22742;-91
2023/07/28 10:07:57;;;;;;;2.35;1.98;;;;;;;21.60;100.00;100603.84;4983978;28;20042;-95
2023/07/28 10:10:42;;;;;;;2.17;1.88;;;;;;;21.68;100.00;100601.25;4983790;28;20046;-87
2023/07/28 10:13:28;;;;;;;2.97;2.50;;;;;;;21.94;100.00;100607.81;4998239;28;20054;-81
2023/07/28 10:16:17;;;;;;;2.38;1.77;;;;;;;22.12;100.00;100602.47;4995494;28;20137;-80
2023/07/28 10:19:03;;;;;;;1.88;1.50;;;;;;;22.24;100.00;100605.81;4995511;28;20046;-81
2023/07/28 10:21:48;;;;;;;1.83;1.40;;;;;;;22.27;100.00;100605.47;4997859;28;20132;-82
2023/07/28 10:24:52;;;;;;;2.13;1.70;;;;;;;22.32;100.00;100602.31;4997879;28;20041;-81
2023/07/28 10:27:39;;;;;;;1.77;1.38;;;;;;;22.43;100.00;100615.59;4982715;28;20050;-82
2023/07/28 10:30:28;;;;;;;2.60;1.90;;;;;;;22.31;100.00;100606.88;4981848;28;20069;-82
2023/07/28 10:33:29;;;;;;;1.88;1.73;;;;;;;22.07;100.00;100613.69;4981788;28;20152;-83
2023/07/28 10:36:17;;;;;;;2.25;1.70;;;;;;;21.91;100.00;100614.38;4997202;28;20037;-82
2023/07/28 10:39:18;;;;;;;3.38;1.95;;;;;;;21.83;100.00;100631.28;4995879;28;22121;-83
2023/07/28 10:42:06;;;;;;;3.38;2.05;;;;;;;21.72;100.00;100618.00;4984142;28;20037;-83
2023/07/28 10:44:51;;;;;;;2.55;1.92;;;;;;;21.59;100.00;100618.31;4983143;28;20489;-82
2023/07/28 10:47:37;;;;;;;2.22;2.03;;;;;;;21.52;100.00;100623.41;4983944;28;20046;-82
2023/07/28 10:50:29;;;;;;;2.65;1.80;;;;;;;21.47;100.00;100623.03;4998380;28;20030;-82
2023/07/28 10:53:14;;;;;;;2.30;2.10;;;;;;;21.48;100.00;100613.97;4982677;28;20531;-82
2023/07/28 10:56:03;;;;;;;1.70;1.60;;;;;;;21.52;100.00;100620.72;4998315;28;20046;-81
2023/07/28 10:58:58;;;;;;;1.92;1.73;;;;;;;21.53;100.00;100625.09;4997257;28;20496;-84
2023/07/28 11:01:44;;;;;;;3.05;1.98;;;;;;;21.55;100.00;100622.28;4977725;28;20129;-86
2023/07/28 11:04:29;;;;;;;4.22;1.75;;;;;;;21.65;100.00;100627.63;4996220;28;20192;-85
2023/07/28 11:07:15;;;;;;;2.03;1.92;;;;;;;21.75;100.00;100623.09;4983374;28;20045;-86
2023/07/28 11:10:02;;;;;;;4.38;2.15;;;;;;;21.77;100.00;100633.69;4955671;28;20054;-85
2023/07/28 11:12:50;;;;;;;3.58;2.25;;;;;;;21.78;100.00;100627.34;4981131;28;21560;-93
2023/07/28 11:15:36;;;;;;;2.90;2.20;;;;;;;21.69;100.00;100629.06;4982664;28;20649;-89
2023/07/28 11:18:21;;;;;;;2.65;2.00;;;;;;;21.76;100.00;100637.41;4993378;28;20037;-88
2023/07/28 11:21:06;;;;;;;2.97;2.15;;;;;;;21.88;100.00;100638.91;4994664;28;20040;-82
2023/07/28 11:23:53;;;;;;;2.10;1.90;;;;;;;21.99;100.00;100640.56;4976922;28;20038;-86
2023/07/28 11:26:39;;;;;;;2.28;2.05;;;;;;;22.01;100.00;100633.16;4989927;28;20077;-88
2023/07/28 11:29:25;;;;;;;2.78;2.10;;;;;;;22.03;100.00;100630.31;4971748;28;20052;-91
2023/07/28 11:32:10;;;;;;;2.85;1.92;;;;;;;22.22;100.00;100632.91;4991239;28;20041;-86
2023/07/28 11:35:11;;;;;;;2.88;2.15;;;;;;;22.30;100.00;100640.25;4977130;28;20172;-86
2023/07/28 11:37:57;;;;;;;4.90;2.30;;;;;;;22.42;100.00;100643.56;4978286;28;20038;-84
2023/07/28 11:40:43;;;;;;;2.85;2.40;;;;;;;22.49;100.00;100652.75;4966513;28;20185;-87
2023/07/28 11:43:28;;;;;;;3.65;2.60;;;;;;;22.42;100.00;100642.69;4977277;28;20426;-89
2023/07/28 11:46:34;;;;;;;4.90;2.78;;;;;;;22.29;100.00;100643.94;4980017;28;20041;-86
2023/07/28 11:49:23;;;;;;;3.38;2.70;;;;;;;22.27;100.00;100654.00;4972240;28;20480;-87
2023/07/28 11:52:08;;;;;;;3.70;2.88;;;;;;;22.39;100.00;100647.41;4973621;28;20107;-86
2023/07/28 11:54:53;;;;;;;3.38;2.55;;;;;;;22.46;100.00;100641.41;4990198;28;20128;-83
2023/07/28 11:57:43;;;;;;;2.85;2.20;;;;;;;22.54;100.00;100640.69;4991758;28;20040;-84
2023/07/28 12:00:30;;;;;;;2.65;2.20;;;;;;;22.60;100.00;100638.22;4995873;28;20835;-84
2023/07/28 12:03:15;;;;;;;2.42;2.22;;;;;;;22.68;100.00;100641.97;4980975;28;20044;-84
2023/07/28 12:06:09;;;;;;;3.95;2.20;;;;;;;22.83;100.00;100643.16;4994480;28;20076;-84
2023/07/28 12:09:05;;;;;;;2.95;2.38;;;;;;;22.91;100.00;100648.63;4990065;28;20057;-84
2023/07/28 12:11:50;;;;;;;3.03;2.70;;;;;;;22.84;100.00;100649.38;4988195;28;20096;-87
2023/07/28 12:14:43;;;;;;;3.17;2.78;;;;;;;22.70;100.00;100653.50;5114067;27;20520;-89
2023/07/28 12:17:28;;;;;;;4.28;2.70;;;;;;;22.54;100.00;100646.09;5105920;28;20044;-95
2023/07/28 12:20:17;;;;;;;3.28;2.97;;;;;;;22.45;100.00;100659.44;5096221;28;20042;-85
2023/07/28 12:23:02;;;;;;;4.00;3.17;;;;;;;22.33;100.00;100645.31;5114095;27;20111;-92
2023/07/28 12:25:50;;;;;;;3.85;2.80;;;;;;;22.33;100.00;100642.63;5101771;28;20066;-92
2023/07/28 12:28:35;;;;;;;5.28;3.08;;;;;;;22.32;100.00;100638.25;5082595;28;20035;-89
2023/07/28 12:31:21;;;;;;;4.13;3.28;;;;;;;22.26;100.00;100652.31;5112850;27;20051;-88
2023/07/28 12:34:07;;;;;;;3.40;3.10;;;;;;;22.23;100.00;100656.16;5097436;28;20042;-81
2023/07/28 12:36:52;;;;;;;4.78;3.67;;;;;;;22.34;100.00;100656.97;5112138;27;20024;-91
2023/07/28 12:39:39;;;;;;;6.78;4.25;;;;;;;22.39;100.00;100663.59;5093184;28;20047;-92